sensor_id;sensor_type;location;lat;lon;timestamp;P1;durP1;ratioP1;P2;durP2;ratioP2
7021;SDS011;3552;42.664;23.406;2022-08-20T00:00:08;8.53;;;5.83;;
7021;SDS011;3552;42.664;23.406;2022-08-20T00:02:39;8.47;;;6.60;;
7021;SDS011;3552;42.664;23.406;2022-08-20T00:05:08;13.10;;;6.57;;
7021;SDS011;3552;42.664;23.406;2022-08-20T00:07:37;10.07;;;6.70;;
7021;SDS011;3552;42.664;23.406;2022-08-20T00:10:05;10.80;;;6.73;;
7021;SDS011;3552;42.664;23.406;2022-08-20T00:12:33;10.13;;;6.50;;
7021;SDS011;3552;42.664;23.406;2022-08-20T00:15:02;10.90;;;7.07;;
7021;SDS011;3552;42.664;23.406;2022-08-20T00:17:31;7.17;;;6.47;;
7021;SDS011;3552;42.664;23.406;2022-08-20T00:20:05;9.13;;;6.40;;
7021;SDS011;3552;42.664;23.406;2022-08-20T00:22:34;10.37;;;6.57;;
7021;SDS011;3552;42.664;23.406;2022-08-20T00:25:04;9.67;;;7.17;;
7021;SDS011;3552;42.664;23.406;2022-08-20T00:27:32;12.30;;;6.13;;
7021;SDS011;3552;42.664;23.406;2022-08-20T00:30:03;9.97;;;6.63;;
7021;SDS011;3552;42.664;23.406;2022-08-20T00:32:40;10.80;;;5.97;;
7021;SDS011;3552;42.664;23.406;2022-08-20T00:35:08;8.40;;;6.33;;
7021;SDS011;3552;42.664;23.406;2022-08-20T00:37:35;8.00;;;6.03;;
7021;SDS011;3552;42.664;23.406;2022-08-20T00:40:05;7.70;;;6.30;;
7021;SDS011;3552;42.664;23.406;2022-08-20T00:42:38;7.30;;;6.40;;
7021;SDS011;3552;42.664;23.406;2022-08-20T00:45:06;7.93;;;6.47;;
7021;SDS011;3552;42.664;23.406;2022-08-20T00:47:34;7.70;;;6.30;;
7021;SDS011;3552;42.664;23.406;2022-08-20T00:50:02;11.20;;;6.60;;
7021;SDS011;3552;42.664;23.406;2022-08-20T00:52:32;10.70;;;6.47;;
7021;SDS011;3552;42.664;23.406;2022-08-20T00:55:00;9.87;;;6.77;;
7021;SDS011;3552;42.664;23.406;2022-08-20T00:57:32;8.07;;;5.90;;
7021;SDS011;3552;42.664;23.406;2022-08-20T01:00:04;9.80;;;6.40;;
7021;SDS011;3552;42.664;23.406;2022-08-20T01:02:35;11.33;;;6.47;;
7021;SDS011;3552;42.664;23.406;2022-08-20T01:05:03;9.97;;;7.00;;
7021;SDS011;3552;42.664;23.406;2022-08-20T01:07:33;9.73;;;6.60;;
7021;SDS011;3552;42.664;23.406;2022-08-20T01:10:04;12.17;;;6.87;;
7021;SDS011;3552;42.664;23.406;2022-08-20T01:12:35;9.07;;;6.27;;
7021;SDS011;3552;42.664;23.406;2022-08-20T01:15:05;8.50;;;6.63;;
7021;SDS011;3552;42.664;23.406;2022-08-20T01:17:40;7.80;;;6.30;;
7021;SDS011;3552;42.664;23.406;2022-08-20T01:20:11;8.90;;;5.87;;
7021;SDS011;3552;42.664;23.406;2022-08-20T01:22:43;7.00;;;6.07;;
7021;SDS011;3552;42.664;23.406;2022-08-20T01:25:44;10.40;;;7.10;;
7021;SDS011;3552;42.664;23.406;2022-08-20T01:28:15;9.47;;;6.73;;
7021;SDS011;3552;42.664;23.406;2022-08-20T01:30:45;8.37;;;6.50;;
7021;SDS011;3552;42.664;23.406;2022-08-20T01:33:12;10.07;;;6.47;;
7021;SDS011;3552;42.664;23.406;2022-08-20T01:35:41;12.57;;;6.67;;
7021;SDS011;3552;42.664;23.406;2022-08-20T01:38:08;7.73;;;6.43;;
7021;SDS011;3552;42.664;23.406;2022-08-20T01:40:54;12.60;;;7.13;;
7021;SDS011;3552;42.664;23.406;2022-08-20T01:43:29;7.83;;;6.30;;
7021;SDS011;3552;42.664;23.406;2022-08-20T01:45:56;11.27;;;7.00;;
7021;SDS011;3552;42.664;23.406;2022-08-20T01:48:25;10.60;;;7.10;;
7021;SDS011;3552;42.664;23.406;2022-08-20T01:50:55;13.97;;;6.90;;
7021;SDS011;3552;42.664;23.406;2022-08-20T01:53:31;11.33;;;7.27;;
7021;SDS011;3552;42.664;23.406;2022-08-20T01:56:05;8.70;;;6.53;;
7021;SDS011;3552;42.664;23.406;2022-08-20T01:58:34;8.67;;;6.93;;
7021;SDS011;3552;42.664;23.406;2022-08-20T02:01:03;12.33;;;6.50;;
7021;SDS011;3552;42.664;23.406;2022-08-20T02:03:30;12.27;;;6.40;;
7021;SDS011;3552;42.664;23.406;2022-08-20T02:05:58;9.23;;;6.47;;
7021;SDS011;3552;42.664;23.406;2022-08-20T02:08:26;12.13;;;6.77;;
7021;SDS011;3552;42.664;23.406;2022-08-20T02:10:53;13.90;;;6.87;;
7021;SDS011;3552;42.664;23.406;2022-08-20T02:13:23;10.77;;;7.37;;
7021;SDS011;3552;42.664;23.406;2022-08-20T02:15:50;8.43;;;6.40;;
7021;SDS011;3552;42.664;23.406;2022-08-20T02:18:17;8.30;;;6.63;;
7021;SDS011;3552;42.664;23.406;2022-08-20T02:20:45;7.60;;;6.70;;
7021;SDS011;3552;42.664;23.406;2022-08-20T02:23:14;8.07;;;6.73;;
7021;SDS011;3552;42.664;23.406;2022-08-20T02:25:41;10.30;;;6.97;;
7021;SDS011;3552;42.664;23.406;2022-08-20T02:28:13;8.77;;;6.83;;
7021;SDS011;3552;42.664;23.406;2022-08-20T02:30:44;8.70;;;6.80;;
7021;SDS011;3552;42.664;23.406;2022-08-20T02:33:14;13.13;;;6.70;;
7021;SDS011;3552;42.664;23.406;2022-08-20T02:35:44;15.80;;;7.10;;
7021;SDS011;3552;42.664;23.406;2022-08-20T02:38:14;8.53;;;7.40;;
7021;SDS011;3552;42.664;23.406;2022-08-20T02:40:41;9.50;;;7.00;;
7021;SDS011;3552;42.664;23.406;2022-08-20T02:43:09;9.03;;;7.10;;
7021;SDS011;3552;42.664;23.406;2022-08-20T02:45:38;14.83;;;7.40;;
7021;SDS011;3552;42.664;23.406;2022-08-20T02:48:10;14.87;;;7.13;;
7021;SDS011;3552;42.664;23.406;2022-08-20T02:50:45;12.83;;;7.43;;
7021;SDS011;3552;42.664;23.406;2022-08-20T02:53:13;11.27;;;7.00;;
7021;SDS011;3552;42.664;23.406;2022-08-20T02:55:41;11.27;;;6.97;;
7021;SDS011;3552;42.664;23.406;2022-08-20T02:58:08;10.93;;;7.57;;
7021;SDS011;3552;42.664;23.406;2022-08-20T03:00:36;12.10;;;7.20;;
7021;SDS011;3552;42.664;23.406;2022-08-20T03:03:04;10.30;;;7.03;;
7021;SDS011;3552;42.664;23.406;2022-08-20T03:05:35;16.67;;;7.60;;
7021;SDS011;3552;42.664;23.406;2022-08-20T03:08:04;9.53;;;7.13;;
7021;SDS011;3552;42.664;23.406;2022-08-20T03:10:33;13.93;;;7.07;;
7021;SDS011;3552;42.664;23.406;2022-08-20T03:13:01;8.47;;;6.87;;
7021;SDS011;3552;42.664;23.406;2022-08-20T03:15:29;15.13;;;7.57;;
7021;SDS011;3552;42.664;23.406;2022-08-20T03:17:58;12.13;;;7.17;;
7021;SDS011;3552;42.664;23.406;2022-08-20T03:20:26;12.10;;;7.50;;
7021;SDS011;3552;42.664;23.406;2022-08-20T03:22:56;12.53;;;8.30;;
7021;SDS011;3552;42.664;23.406;2022-08-20T03:25:23;12.23;;;7.70;;
7021;SDS011;3552;42.664;23.406;2022-08-20T03:27:50;15.17;;;7.37;;
7021;SDS011;3552;42.664;23.406;2022-08-20T03:30:18;12.00;;;7.23;;
7021;SDS011;3552;42.664;23.406;2022-08-20T03:32:45;8.17;;;7.00;;
7021;SDS011;3552;42.664;23.406;2022-08-20T03:35:13;9.40;;;7.70;;
7021;SDS011;3552;42.664;23.406;2022-08-20T03:37:41;10.73;;;7.70;;
7021;SDS011;3552;42.664;23.406;2022-08-20T03:40:12;15.70;;;8.40;;
7021;SDS011;3552;42.664;23.406;2022-08-20T03:42:41;13.23;;;7.47;;
7021;SDS011;3552;42.664;23.406;2022-08-20T03:45:08;12.73;;;8.13;;
7021;SDS011;3552;42.664;23.406;2022-08-20T03:47:37;12.13;;;7.67;;
7021;SDS011;3552;42.664;23.406;2022-08-20T03:50:06;15.17;;;7.20;;
7021;SDS011;3552;42.664;23.406;2022-08-20T03:52:34;11.80;;;7.47;;
7021;SDS011;3552;42.664;23.406;2022-08-20T03:55:02;12.87;;;7.50;;
7021;SDS011;3552;42.664;23.406;2022-08-20T03:57:31;16.17;;;7.83;;
7021;SDS011;3552;42.664;23.406;2022-08-20T03:59:58;17.40;;;8.47;;
7021;SDS011;3552;42.664;23.406;2022-08-20T04:02:26;26.77;;;8.70;;
7021;SDS011;3552;42.664;23.406;2022-08-20T04:04:54;12.53;;;7.87;;
7021;SDS011;3552;42.664;23.406;2022-08-20T04:07:22;11.17;;;7.23;;
7021;SDS011;3552;42.664;23.406;2022-08-20T04:09:51;13.63;;;7.33;;
7021;SDS011;3552;42.664;23.406;2022-08-20T04:12:18;12.33;;;7.73;;
7021;SDS011;3552;42.664;23.406;2022-08-20T04:14:47;16.87;;;7.90;;
7021;SDS011;3552;42.664;23.406;2022-08-20T04:17:16;18.80;;;8.27;;
7021;SDS011;3552;42.664;23.406;2022-08-20T04:19:45;10.63;;;7.57;;
7021;SDS011;3552;42.664;23.406;2022-08-20T04:22:13;20.43;;;8.10;;
7021;SDS011;3552;42.664;23.406;2022-08-20T04:24:40;17.17;;;7.93;;
7021;SDS011;3552;42.664;23.406;2022-08-20T04:27:08;16.77;;;7.83;;
7021;SDS011;3552;42.664;23.406;2022-08-20T04:29:36;11.13;;;7.10;;
7021;SDS011;3552;42.664;23.406;2022-08-20T04:32:08;14.30;;;8.13;;
7021;SDS011;3552;42.664;23.406;2022-08-20T04:34:36;12.07;;;7.70;;
7021;SDS011;3552;42.664;23.406;2022-08-20T04:37:03;19.53;;;8.13;;
7021;SDS011;3552;42.664;23.406;2022-08-20T04:39:31;23.27;;;8.00;;
7021;SDS011;3552;42.664;23.406;2022-08-20T04:41:58;11.67;;;7.47;;
7021;SDS011;3552;42.664;23.406;2022-08-20T04:44:24;12.40;;;8.73;;
7021;SDS011;3552;42.664;23.406;2022-08-20T04:46:52;15.43;;;8.50;;
7021;SDS011;3552;42.664;23.406;2022-08-20T04:49:21;14.43;;;8.37;;
7021;SDS011;3552;42.664;23.406;2022-08-20T04:51:50;19.37;;;8.20;;
7021;SDS011;3552;42.664;23.406;2022-08-20T04:54:18;14.53;;;8.17;;
7021;SDS011;3552;42.664;23.406;2022-08-20T04:56:48;16.27;;;8.63;;
7021;SDS011;3552;42.664;23.406;2022-08-20T04:59:16;29.37;;;8.10;;
7021;SDS011;3552;42.664;23.406;2022-08-20T05:01:43;26.03;;;8.67;;
7021;SDS011;3552;42.664;23.406;2022-08-20T05:04:10;20.00;;;8.57;;
7021;SDS011;3552;42.664;23.406;2022-08-20T05:06:41;20.73;;;7.73;;
7021;SDS011;3552;42.664;23.406;2022-08-20T05:09:08;14.87;;;7.60;;
7021;SDS011;3552;42.664;23.406;2022-08-20T05:11:35;13.80;;;7.60;;
7021;SDS011;3552;42.664;23.406;2022-08-20T05:14:04;15.53;;;7.23;;
7021;SDS011;3552;42.664;23.406;2022-08-20T05:16:32;10.70;;;7.57;;
7021;SDS011;3552;42.664;23.406;2022-08-20T05:19:03;15.60;;;8.03;;
7021;SDS011;3552;42.664;23.406;2022-08-20T05:21:30;11.77;;;7.63;;
7021;SDS011;3552;42.664;23.406;2022-08-20T05:23:59;12.20;;;8.00;;
7021;SDS011;3552;42.664;23.406;2022-08-20T05:26:27;12.73;;;7.70;;
7021;SDS011;3552;42.664;23.406;2022-08-20T05:28:54;15.03;;;8.10;;
7021;SDS011;3552;42.664;23.406;2022-08-20T05:31:22;16.07;;;7.83;;
7021;SDS011;3552;42.664;23.406;2022-08-20T05:33:49;15.17;;;7.73;;
7021;SDS011;3552;42.664;23.406;2022-08-20T05:36:17;12.43;;;7.20;;
7021;SDS011;3552;42.664;23.406;2022-08-20T05:38:45;13.40;;;7.47;;
7021;SDS011;3552;42.664;23.406;2022-08-20T05:41:14;11.57;;;8.13;;
7021;SDS011;3552;42.664;23.406;2022-08-20T05:43:42;10.73;;;7.30;;
7021;SDS011;3552;42.664;23.406;2022-08-20T05:46:10;8.67;;;7.77;;
7021;SDS011;3552;42.664;23.406;2022-08-20T05:48:40;12.10;;;7.83;;
7021;SDS011;3552;42.664;23.406;2022-08-20T05:51:07;11.60;;;7.40;;
7021;SDS011;3552;42.664;23.406;2022-08-20T05:53:36;11.90;;;7.40;;
7021;SDS011;3552;42.664;23.406;2022-08-20T05:56:03;9.37;;;7.87;;
7021;SDS011;3552;42.664;23.406;2022-08-20T05:58:33;16.63;;;7.97;;
7021;SDS011;3552;42.664;23.406;2022-08-20T06:01:02;11.87;;;7.63;;
7021;SDS011;3552;42.664;23.406;2022-08-20T06:03:29;13.73;;;8.00;;
7021;SDS011;3552;42.664;23.406;2022-08-20T06:06:13;11.87;;;7.27;;
7021;SDS011;3552;42.664;23.406;2022-08-20T06:08:41;12.50;;;7.67;;
7021;SDS011;3552;42.664;23.406;2022-08-20T06:11:09;12.07;;;6.90;;
7021;SDS011;3552;42.664;23.406;2022-08-20T06:13:39;15.70;;;7.60;;
7021;SDS011;3552;42.664;23.406;2022-08-20T06:16:06;9.57;;;8.30;;
7021;SDS011;3552;42.664;23.406;2022-08-20T06:18:33;11.87;;;8.20;;
7021;SDS011;3552;42.664;23.406;2022-08-20T06:21:01;13.10;;;7.33;;
7021;SDS011;3552;42.664;23.406;2022-08-20T06:23:29;10.43;;;8.13;;
7021;SDS011;3552;42.664;23.406;2022-08-20T06:25:56;13.43;;;7.87;;
7021;SDS011;3552;42.664;23.406;2022-08-20T06:28:24;9.60;;;7.57;;
7021;SDS011;3552;42.664;23.406;2022-08-20T06:30:53;9.70;;;6.93;;
7021;SDS011;3552;42.664;23.406;2022-08-20T06:33:21;8.90;;;7.77;;
7021;SDS011;3552;42.664;23.406;2022-08-20T06:35:48;14.93;;;8.00;;
7021;SDS011;3552;42.664;23.406;2022-08-20T06:38:15;11.17;;;7.77;;
7021;SDS011;3552;42.664;23.406;2022-08-20T06:40:44;16.03;;;8.23;;
7021;SDS011;3552;42.664;23.406;2022-08-20T06:43:12;11.90;;;8.30;;
7021;SDS011;3552;42.664;23.406;2022-08-20T06:45:40;9.13;;;7.67;;
7021;SDS011;3552;42.664;23.406;2022-08-20T06:48:11;10.63;;;7.60;;
7021;SDS011;3552;42.664;23.406;2022-08-20T06:50:41;16.00;;;8.00;;
7021;SDS011;3552;42.664;23.406;2022-08-20T06:53:10;9.03;;;7.90;;
7021;SDS011;3552;42.664;23.406;2022-08-20T06:55:40;12.13;;;8.50;;
7021;SDS011;3552;42.664;23.406;2022-08-20T06:58:11;21.30;;;9.23;;
7021;SDS011;3552;42.664;23.406;2022-08-20T07:00:40;13.87;;;8.47;;
7021;SDS011;3552;42.664;23.406;2022-08-20T07:03:09;10.70;;;7.60;;
7021;SDS011;3552;42.664;23.406;2022-08-20T07:05:38;11.00;;;7.63;;
7021;SDS011;3552;42.664;23.406;2022-08-20T07:08:07;13.10;;;8.27;;
7021;SDS011;3552;42.664;23.406;2022-08-20T07:10:35;12.83;;;7.60;;
7021;SDS011;3552;42.664;23.406;2022-08-20T07:13:02;13.43;;;7.63;;
7021;SDS011;3552;42.664;23.406;2022-08-20T07:15:30;13.77;;;7.53;;
7021;SDS011;3552;42.664;23.406;2022-08-20T07:17:58;11.67;;;8.03;;
7021;SDS011;3552;42.664;23.406;2022-08-20T07:20:30;14.10;;;7.63;;
7021;SDS011;3552;42.664;23.406;2022-08-20T07:22:59;13.43;;;7.70;;
7021;SDS011;3552;42.664;23.406;2022-08-20T07:25:30;11.13;;;7.80;;
7021;SDS011;3552;42.664;23.406;2022-08-20T07:28:01;13.57;;;7.87;;
7021;SDS011;3552;42.664;23.406;2022-08-20T07:30:29;14.53;;;7.87;;
7021;SDS011;3552;42.664;23.406;2022-08-20T07:33:13;14.33;;;7.57;;
7021;SDS011;3552;42.664;23.406;2022-08-20T07:35:43;11.47;;;7.60;;
7021;SDS011;3552;42.664;23.406;2022-08-20T07:38:13;8.97;;;7.13;;
7021;SDS011;3552;42.664;23.406;2022-08-20T07:40:43;12.33;;;7.70;;
7021;SDS011;3552;42.664;23.406;2022-08-20T07:43:12;12.93;;;7.33;;
7021;SDS011;3552;42.664;23.406;2022-08-20T07:45:41;14.90;;;7.77;;
7021;SDS011;3552;42.664;23.406;2022-08-20T07:48:09;10.50;;;7.17;;
7021;SDS011;3552;42.664;23.406;2022-08-20T07:50:37;16.83;;;8.13;;
7021;SDS011;3552;42.664;23.406;2022-08-20T07:53:07;11.13;;;8.20;;
7021;SDS011;3552;42.664;23.406;2022-08-20T07:55:36;12.47;;;7.77;;
7021;SDS011;3552;42.664;23.406;2022-08-20T07:58:05;10.60;;;7.20;;
7021;SDS011;3552;42.664;23.406;2022-08-20T08:00:34;11.83;;;7.97;;
7021;SDS011;3552;42.664;23.406;2022-08-20T08:03:02;12.00;;;8.30;;
7021;SDS011;3552;42.664;23.406;2022-08-20T08:05:30;14.57;;;7.73;;
7021;SDS011;3552;42.664;23.406;2022-08-20T08:07:58;9.70;;;7.57;;
7021;SDS011;3552;42.664;23.406;2022-08-20T08:10:31;16.33;;;8.00;;
7021;SDS011;3552;42.664;23.406;2022-08-20T08:13:00;11.60;;;7.97;;
7021;SDS011;3552;42.664;23.406;2022-08-20T08:15:30;10.13;;;7.43;;
7021;SDS011;3552;42.664;23.406;2022-08-20T08:18:00;15.00;;;7.33;;
7021;SDS011;3552;42.664;23.406;2022-08-20T08:20:32;9.97;;;7.30;;
7021;SDS011;3552;42.664;23.406;2022-08-20T08:23:04;18.27;;;8.03;;
7021;SDS011;3552;42.664;23.406;2022-08-20T08:25:33;8.90;;;7.60;;
7021;SDS011;3552;42.664;23.406;2022-08-20T08:28:00;9.97;;;6.97;;
7021;SDS011;3552;42.664;23.406;2022-08-20T08:30:27;10.47;;;7.60;;
7021;SDS011;3552;42.664;23.406;2022-08-20T08:32:55;12.23;;;7.40;;
7021;SDS011;3552;42.664;23.406;2022-08-20T08:35:40;8.47;;;7.53;;
7021;SDS011;3552;42.664;23.406;2022-08-20T08:38:10;13.83;;;6.97;;
7021;SDS011;3552;42.664;23.406;2022-08-20T08:40:40;10.37;;;8.00;;
7021;SDS011;3552;42.664;23.406;2022-08-20T08:43:08;10.57;;;7.10;;
7021;SDS011;3552;42.664;23.406;2022-08-20T08:45:40;10.40;;;7.83;;
7021;SDS011;3552;42.664;23.406;2022-08-20T08:48:10;12.03;;;7.30;;
7021;SDS011;3552;42.664;23.406;2022-08-20T08:50:39;15.87;;;7.80;;
7021;SDS011;3552;42.664;23.406;2022-08-20T08:53:10;9.37;;;7.37;;
7021;SDS011;3552;42.664;23.406;2022-08-20T08:55:46;8.73;;;6.57;;
7021;SDS011;3552;42.664;23.406;2022-08-20T08:58:13;7.87;;;6.63;;
7021;SDS011;3552;42.664;23.406;2022-08-20T09:00:40;11.10;;;7.67;;
7021;SDS011;3552;42.664;23.406;2022-08-20T09:03:09;11.70;;;6.77;;
7021;SDS011;3552;42.664;23.406;2022-08-20T09:05:43;11.53;;;7.57;;
7021;SDS011;3552;42.664;23.406;2022-08-20T09:08:18;9.63;;;7.10;;
7021;SDS011;3552;42.664;23.406;2022-08-20T09:10:53;16.70;;;7.73;;
7021;SDS011;3552;42.664;23.406;2022-08-20T09:13:20;13.57;;;7.67;;
7021;SDS011;3552;42.664;23.406;2022-08-20T09:15:47;11.90;;;7.60;;
7021;SDS011;3552;42.664;23.406;2022-08-20T09:18:14;8.53;;;7.27;;
7021;SDS011;3552;42.664;23.406;2022-08-20T09:20:41;9.40;;;7.47;;
7021;SDS011;3552;42.664;23.406;2022-08-20T09:23:08;9.07;;;7.80;;
7021;SDS011;3552;42.664;23.406;2022-08-20T09:25:35;8.47;;;7.20;;
7021;SDS011;3552;42.664;23.406;2022-08-20T09:28:04;12.23;;;7.40;;
7021;SDS011;3552;42.664;23.406;2022-08-20T09:30:31;11.27;;;7.27;;
7021;SDS011;3552;42.664;23.406;2022-08-20T09:32:58;18.97;;;8.53;;
7021;SDS011;3552;42.664;23.406;2022-08-20T09:35:26;8.03;;;7.20;;
7021;SDS011;3552;42.664;23.406;2022-08-20T09:37:54;12.90;;;7.63;;
7021;SDS011;3552;42.664;23.406;2022-08-20T09:40:21;14.13;;;7.63;;
7021;SDS011;3552;42.664;23.406;2022-08-20T09:42:48;8.77;;;7.43;;
7021;SDS011;3552;42.664;23.406;2022-08-20T09:45:18;9.67;;;7.60;;
7021;SDS011;3552;42.664;23.406;2022-08-20T09:47:45;10.10;;;7.83;;
7021;SDS011;3552;42.664;23.406;2022-08-20T09:50:12;7.57;;;6.87;;
7021;SDS011;3552;42.664;23.406;2022-08-20T09:52:40;8.23;;;7.23;;
7021;SDS011;3552;42.664;23.406;2022-08-20T09:55:13;9.03;;;7.47;;
7021;SDS011;3552;42.664;23.406;2022-08-20T09:57:44;10.83;;;7.50;;
7021;SDS011;3552;42.664;23.406;2022-08-20T10:00:12;13.27;;;7.73;;
7021;SDS011;3552;42.664;23.406;2022-08-20T10:02:43;10.73;;;7.17;;
7021;SDS011;3552;42.664;23.406;2022-08-20T10:05:11;11.63;;;7.53;;
7021;SDS011;3552;42.664;23.406;2022-08-20T10:07:39;10.47;;;7.40;;
7021;SDS011;3552;42.664;23.406;2022-08-20T10:10:09;13.40;;;8.10;;
7021;SDS011;3552;42.664;23.406;2022-08-20T10:12:39;9.80;;;7.50;;
7021;SDS011;3552;42.664;23.406;2022-08-20T10:15:08;11.23;;;7.73;;
7021;SDS011;3552;42.664;23.406;2022-08-20T10:17:36;13.53;;;7.53;;
7021;SDS011;3552;42.664;23.406;2022-08-20T10:20:06;12.53;;;7.87;;
7021;SDS011;3552;42.664;23.406;2022-08-20T10:22:35;10.17;;;7.40;;
7021;SDS011;3552;42.664;23.406;2022-08-20T10:25:03;10.30;;;7.70;;
7021;SDS011;3552;42.664;23.406;2022-08-20T10:27:30;12.07;;;8.07;;
7021;SDS011;3552;42.664;23.406;2022-08-20T10:29:58;10.70;;;7.50;;
7021;SDS011;3552;42.664;23.406;2022-08-20T10:32:25;9.07;;;7.30;;
7021;SDS011;3552;42.664;23.406;2022-08-20T10:34:53;8.80;;;7.20;;
7021;SDS011;3552;42.664;23.406;2022-08-20T10:37:24;8.23;;;7.10;;
7021;SDS011;3552;42.664;23.406;2022-08-20T10:39:52;11.07;;;7.30;;
7021;SDS011;3552;42.664;23.406;2022-08-20T10:42:20;10.50;;;8.07;;
7021;SDS011;3552;42.664;23.406;2022-08-20T10:44:48;13.80;;;7.80;;
7021;SDS011;3552;42.664;23.406;2022-08-20T10:47:16;12.33;;;7.20;;
7021;SDS011;3552;42.664;23.406;2022-08-20T10:49:45;8.23;;;7.53;;
7021;SDS011;3552;42.664;23.406;2022-08-20T10:52:13;13.43;;;8.00;;
7021;SDS011;3552;42.664;23.406;2022-08-20T10:54:41;11.30;;;8.33;;
7021;SDS011;3552;42.664;23.406;2022-08-20T10:57:09;14.07;;;9.73;;
7021;SDS011;3552;42.664;23.406;2022-08-20T10:59:40;14.17;;;7.20;;
7021;SDS011;3552;42.664;23.406;2022-08-20T11:02:08;11.50;;;7.40;;
7021;SDS011;3552;42.664;23.406;2022-08-20T11:04:35;9.77;;;7.13;;
7021;SDS011;3552;42.664;23.406;2022-08-20T11:07:14;9.60;;;7.20;;
7021;SDS011;3552;42.664;23.406;2022-08-20T11:09:45;8.87;;;7.40;;
7021;SDS011;3552;42.664;23.406;2022-08-20T11:12:13;9.27;;;7.20;;
7021;SDS011;3552;42.664;23.406;2022-08-20T11:14:40;9.73;;;6.80;;
7021;SDS011;3552;42.664;23.406;2022-08-20T11:17:07;8.23;;;7.00;;
7021;SDS011;3552;42.664;23.406;2022-08-20T11:19:37;12.70;;;6.70;;
7021;SDS011;3552;42.664;23.406;2022-08-20T11:22:05;13.43;;;6.67;;
7021;SDS011;3552;42.664;23.406;2022-08-20T11:24:33;9.00;;;6.67;;
7021;SDS011;3552;42.664;23.406;2022-08-20T11:27:02;7.07;;;6.37;;
7021;SDS011;3552;42.664;23.406;2022-08-20T11:29:31;9.83;;;6.90;;
7021;SDS011;3552;42.664;23.406;2022-08-20T11:31:58;8.60;;;6.97;;
7021;SDS011;3552;42.664;23.406;2022-08-20T11:34:28;6.70;;;6.03;;
7021;SDS011;3552;42.664;23.406;2022-08-20T11:36:56;10.47;;;6.93;;
7021;SDS011;3552;42.664;23.406;2022-08-20T11:39:24;8.17;;;7.30;;
7021;SDS011;3552;42.664;23.406;2022-08-20T11:41:52;10.70;;;7.17;;
7021;SDS011;3552;42.664;23.406;2022-08-20T11:44:21;13.20;;;7.20;;
7021;SDS011;3552;42.664;23.406;2022-08-20T11:46:48;9.30;;;6.80;;
7021;SDS011;3552;42.664;23.406;2022-08-20T11:49:15;12.67;;;7.23;;
7021;SDS011;3552;42.664;23.406;2022-08-20T11:51:42;38.57;;;24.10;;
7021;SDS011;3552;42.664;23.406;2022-08-20T11:54:09;10.50;;;6.67;;
7021;SDS011;3552;42.664;23.406;2022-08-20T11:56:36;12.70;;;6.93;;
7021;SDS011;3552;42.664;23.406;2022-08-20T11:59:03;7.77;;;6.40;;
7021;SDS011;3552;42.664;23.406;2022-08-20T12:01:33;12.50;;;6.20;;
7021;SDS011;3552;42.664;23.406;2022-08-20T12:04:00;7.70;;;6.03;;
7021;SDS011;3552;42.664;23.406;2022-08-20T12:06:27;8.50;;;6.20;;
7021;SDS011;3552;42.664;23.406;2022-08-20T12:08:55;22.77;;;15.13;;
7021;SDS011;3552;42.664;23.406;2022-08-20T12:11:22;11.33;;;7.47;;
7021;SDS011;3552;42.664;23.406;2022-08-20T12:13:49;9.63;;;7.23;;
7021;SDS011;3552;42.664;23.406;2022-08-20T12:16:17;8.03;;;6.80;;
7021;SDS011;3552;42.664;23.406;2022-08-20T12:18:46;13.60;;;7.00;;
7021;SDS011;3552;42.664;23.406;2022-08-20T12:21:15;9.90;;;7.20;;
7021;SDS011;3552;42.664;23.406;2022-08-20T12:23:42;9.57;;;7.53;;
7021;SDS011;3552;42.664;23.406;2022-08-20T12:26:10;13.83;;;8.03;;
7021;SDS011;3552;42.664;23.406;2022-08-20T12:28:37;8.90;;;7.53;;
7021;SDS011;3552;42.664;23.406;2022-08-20T12:31:05;11.17;;;8.20;;
7021;SDS011;3552;42.664;23.406;2022-08-20T12:33:35;13.40;;;8.47;;
7021;SDS011;3552;42.664;23.406;2022-08-20T12:36:05;17.17;;;8.97;;
7021;SDS011;3552;42.664;23.406;2022-08-20T12:38:32;12.17;;;8.50;;
7021;SDS011;3552;42.664;23.406;2022-08-20T12:40:59;17.27;;;8.87;;
7021;SDS011;3552;42.664;23.406;2022-08-20T12:43:26;9.53;;;8.10;;
7021;SDS011;3552;42.664;23.406;2022-08-20T12:45:54;18.57;;;9.00;;
7021;SDS011;3552;42.664;23.406;2022-08-20T12:48:21;14.67;;;9.70;;
7021;SDS011;3552;42.664;23.406;2022-08-20T12:50:50;19.33;;;9.57;;
7021;SDS011;3552;42.664;23.406;2022-08-20T12:53:19;16.57;;;10.20;;
7021;SDS011;3552;42.664;23.406;2022-08-20T12:55:46;17.97;;;10.43;;
7021;SDS011;3552;42.664;23.406;2022-08-20T12:58:14;15.53;;;10.50;;
7021;SDS011;3552;42.664;23.406;2022-08-20T13:00:42;18.07;;;10.60;;
7021;SDS011;3552;42.664;23.406;2022-08-20T13:03:12;17.27;;;10.77;;
7021;SDS011;3552;42.664;23.406;2022-08-20T13:05:39;19.73;;;12.10;;
7021;SDS011;3552;42.664;23.406;2022-08-20T13:08:07;18.17;;;12.23;;
7021;SDS011;3552;42.664;23.406;2022-08-20T13:10:39;18.53;;;11.20;;
7021;SDS011;3552;42.664;23.406;2022-08-20T13:13:09;37.83;;;27.90;;
7021;SDS011;3552;42.664;23.406;2022-08-20T13:15:37;26.93;;;18.73;;
7021;SDS011;3552;42.664;23.406;2022-08-20T13:18:05;20.97;;;15.93;;
7021;SDS011;3552;42.664;23.406;2022-08-20T13:20:33;16.47;;;11.30;;
7021;SDS011;3552;42.664;23.406;2022-08-20T13:23:01;18.10;;;11.17;;
7021;SDS011;3552;42.664;23.406;2022-08-20T13:25:30;17.17;;;11.20;;
7021;SDS011;3552;42.664;23.406;2022-08-20T13:28:01;19.50;;;11.83;;
7021;SDS011;3552;42.664;23.406;2022-08-20T13:30:29;17.90;;;11.90;;
7021;SDS011;3552;42.664;23.406;2022-08-20T13:32:59;18.80;;;11.27;;
7021;SDS011;3552;42.664;23.406;2022-08-20T13:35:26;17.27;;;11.03;;
7021;SDS011;3552;42.664;23.406;2022-08-20T13:37:53;20.63;;;11.40;;
7021;SDS011;3552;42.664;23.406;2022-08-20T13:40:20;16.73;;;10.97;;
7021;SDS011;3552;42.664;23.406;2022-08-20T13:42:49;23.70;;;12.43;;
7021;SDS011;3552;42.664;23.406;2022-08-20T13:45:19;19.73;;;12.23;;
7021;SDS011;3552;42.664;23.406;2022-08-20T13:47:49;20.63;;;12.20;;
7021;SDS011;3552;42.664;23.406;2022-08-20T13:50:19;17.20;;;11.97;;
7021;SDS011;3552;42.664;23.406;2022-08-20T13:52:49;16.80;;;12.37;;
7021;SDS011;3552;42.664;23.406;2022-08-20T13:55:17;15.70;;;10.97;;
7021;SDS011;3552;42.664;23.406;2022-08-20T13:57:46;12.30;;;10.60;;
7021;SDS011;3552;42.664;23.406;2022-08-20T14:00:15;20.83;;;11.60;;
7021;SDS011;3552;42.664;23.406;2022-08-20T14:02:47;14.83;;;10.87;;
7021;SDS011;3552;42.664;23.406;2022-08-20T14:05:14;15.93;;;10.67;;
7021;SDS011;3552;42.664;23.406;2022-08-20T14:07:43;13.00;;;11.70;;
7021;SDS011;3552;42.664;23.406;2022-08-20T14:10:12;14.90;;;10.80;;
7021;SDS011;3552;42.664;23.406;2022-08-20T14:12:41;19.33;;;10.73;;
7021;SDS011;3552;42.664;23.406;2022-08-20T14:15:09;18.87;;;11.03;;
7021;SDS011;3552;42.664;23.406;2022-08-20T14:17:42;33.20;;;18.80;;
7021;SDS011;3552;42.664;23.406;2022-08-20T14:20:17;18.63;;;12.00;;
7021;SDS011;3552;42.664;23.406;2022-08-20T14:22:46;14.93;;;11.20;;
7021;SDS011;3552;42.664;23.406;2022-08-20T14:25:14;19.77;;;12.67;;
7021;SDS011;3552;42.664;23.406;2022-08-20T14:27:44;15.20;;;11.77;;
7021;SDS011;3552;42.664;23.406;2022-08-20T14:30:12;16.63;;;12.37;;
7021;SDS011;3552;42.664;23.406;2022-08-20T14:32:41;16.70;;;12.63;;
7021;SDS011;3552;42.664;23.406;2022-08-20T14:35:08;15.90;;;12.90;;
7021;SDS011;3552;42.664;23.406;2022-08-20T14:37:40;18.20;;;12.20;;
7021;SDS011;3552;42.664;23.406;2022-08-20T14:40:09;16.10;;;11.90;;
7021;SDS011;3552;42.664;23.406;2022-08-20T14:42:37;14.17;;;11.67;;
7021;SDS011;3552;42.664;23.406;2022-08-20T14:45:05;20.47;;;12.93;;
7021;SDS011;3552;42.664;23.406;2022-08-20T14:47:34;19.87;;;10.90;;
7021;SDS011;3552;42.664;23.406;2022-08-20T14:50:04;14.80;;;9.50;;
7021;SDS011;3552;42.664;23.406;2022-08-20T14:52:34;16.33;;;10.47;;
7021;SDS011;3552;42.664;23.406;2022-08-20T14:55:04;14.20;;;10.87;;
7021;SDS011;3552;42.664;23.406;2022-08-20T14:57:33;14.43;;;10.87;;
7021;SDS011;3552;42.664;23.406;2022-08-20T15:00:00;19.70;;;11.40;;